createdAt,value
2023-05-10T00:08:51.788Z,7.41
2023-05-10T00:12:21.753Z,7.38
2023-05-10T00:15:59.159Z,7.38
2023-05-10T00:19:49.687Z,7.39
2023-05-10T00:42:35.902Z,7.65
2023-05-10T00:46:28.307Z,7.59
2023-05-10T00:50:02.908Z,7.58
2023-05-10T00:53:55.513Z,7.58
2023-05-10T00:57:20.155Z,7.61
2023-05-10T01:16:04.550Z,7.55
2023-05-10T01:19:54.726Z,7.52
2023-05-10T01:23:52.856Z,7.51
2023-05-10T01:28:03.688Z,7.46
2023-05-10T01:32:13.730Z,7.44
2023-05-10T01:36:14.300Z,7.44
2023-05-10T01:39:53.597Z,7.45
2023-05-10T01:43:45.807Z,7.44
2023-05-10T01:47:37.136Z,7.42
2023-05-10T01:51:30.436Z,7.41
2023-05-10T02:17:44.451Z,7.56
2023-05-10T02:21:35.612Z,7.54
2023-05-10T02:25:18.297Z,7.52
2023-05-10T02:28:53.307Z,7.48
2023-05-10T02:32:30.002Z,7.45
2023-05-10T02:36:22.956Z,7.44
2023-05-10T02:40:16.284Z,7.39
2023-05-10T02:44:09.924Z,7.30
2023-05-10T02:59:31.727Z,6.85
2023-05-10T03:03:11.356Z,6.64
2023-05-10T03:30:25.949Z,6.13
2023-05-10T03:34:18.173Z,6.19
2023-05-10T03:38:09.346Z,6.21
2023-05-10T03:41:39.472Z,6.23
2023-05-10T03:45:11.966Z,6.28
2023-05-10T03:49:05.647Z,6.24
2023-05-10T03:52:55.043Z,6.26
2023-05-10T04:07:47.104Z,6.36
2023-05-10T04:11:33.112Z,6.43
2023-05-10T04:15:23.426Z,6.55
2023-05-10T04:34:04.073Z,7.15
2023-05-10T04:37:56.970Z,7.23
2023-05-10T04:57:28.582Z,7.88
2023-05-10T05:01:20.216Z,7.97
2023-05-10T05:05:11.661Z,8.06
2023-05-10T05:08:45.182Z,8.16
2023-05-10T05:15:59.971Z,8.44
2023-05-10T05:19:44.124Z,8.52
2023-05-10T05:23:29.474Z,8.63
2023-05-10T05:27:14.525Z,8.78
2023-05-10T05:30:45.331Z,8.93
2023-05-10T05:34:38.041Z,9.00
2023-05-10T05:53:06.309Z,9.58
2023-05-10T05:56:49.846Z,9.67
2023-05-10T06:15:33.370Z,10.34
2023-05-10T06:19:26.256Z,10.47
2023-05-10T06:51:22.579Z,12.13
2023-05-10T06:55:02.412Z,12.27
2023-05-10T06:58:44.340Z,12.26
2023-05-10T07:02:24.624Z,12.35
2023-05-10T07:06:07.817Z,12.51
2023-05-10T07:24:37.685Z,13.53
2023-05-10T07:28:29.551Z,13.87
2023-05-10T07:47:09.395Z,14.88
2023-05-10T07:50:51.487Z,14.98
2023-05-10T07:54:42.632Z,15.14
2023-05-10T07:58:22.721Z,14.94
2023-05-10T08:02:16.779Z,15.12
2023-05-10T08:05:50.885Z,15.17
2023-05-10T08:24:24.618Z,16.07
2023-05-10T08:28:15.079Z,15.97
2023-05-10T08:32:08.848Z,15.92
2023-05-10T08:35:55.184Z,16.15
2023-05-10T08:39:33.794Z,16.58
2023-05-10T08:43:06.930Z,16.69
2023-05-10T09:26:22.559Z,18.33
2023-05-10T09:30:18.597Z,18.70
2023-05-10T09:34:01.881Z,18.91
2023-05-10T09:37:44.112Z,18.95
2023-05-10T10:03:43.064Z,19.10
2023-05-10T10:07:41.204Z,19.17
2023-05-10T10:11:03.732Z,19.49
2023-05-10T10:14:46.783Z,19.41
2023-05-10T10:39:59.634Z,20.50
2023-05-10T10:44:06.319Z,19.99
2023-05-10T10:47:31.173Z,19.92
2023-05-10T10:50:48.049Z,19.78
2023-05-10T10:54:21.962Z,20.03
2023-05-10T10:57:56.319Z,20.32
2023-05-10T11:01:16.102Z,20.23
2023-05-10T11:05:02.323Z,20.56
2023-05-10T11:08:54.645Z,20.89
2023-05-10T11:12:27.101Z,20.90
2023-05-10T11:19:42.923Z,20.47
2023-05-10T11:23:17.236Z,20.63
2023-05-10T11:26:56.454Z,21.14
2023-05-10T11:30:28.540Z,21.19
2023-05-10T11:41:19.726Z,21.29
2023-05-10T11:44:47.145Z,20.94
2023-05-10T11:51:37.537Z,21.29
2023-05-10T12:02:53.067Z,20.42
2023-05-10T12:16:00.872Z,19.99
2023-05-10T12:57:56.858Z,20.18
2023-05-10T13:01:07.964Z,20.16
2023-05-10T13:03:50.861Z,19.94
2023-05-10T13:06:56.808Z,19.95
2023-05-10T13:09:59.966Z,19.78
2023-05-10T13:13:23.015Z,19.78
2023-05-10T13:16:32.974Z,20.14
2023-05-10T13:19:32.022Z,20.04
2023-05-10T13:22:43.325Z,19.87
2023-05-10T13:25:49.960Z,19.64
2023-05-10T13:29:13.556Z,19.80
2023-05-10T13:32:35.937Z,19.76
2023-05-10T13:35:41.270Z,19.72
2023-05-10T13:38:45.176Z,19.99
2023-05-10T13:41:41.485Z,20.24
2023-05-10T13:44:41.273Z,20.22
2023-05-10T13:47:45.534Z,20.45
2023-05-10T13:50:47.523Z,20.44
2023-05-10T13:54:12.010Z,20.03
2023-05-10T13:57:11.921Z,19.67
2023-05-10T14:00:31.689Z,19.40
2023-05-10T14:03:43.932Z,19.14
2023-05-10T14:07:23.757Z,18.94
2023-05-10T14:10:46.366Z,18.63
2023-05-10T14:14:20.260Z,18.42
2023-05-10T14:18:03.042Z,18.84
2023-05-10T15:15:18.650Z,18.50
2023-05-10T15:18:48.878Z,18.65
2023-05-10T15:22:16.168Z,18.76
2023-05-10T15:25:58.066Z,18.84
2023-05-10T15:29:41.208Z,19.00
2023-05-10T15:33:25.271Z,19.17
2023-05-10T15:52:08.441Z,18.77
2023-05-10T15:55:52.597Z,18.47
2023-05-10T15:59:31.936Z,18.30
2023-05-10T16:03:24.173Z,18.21
2023-05-10T16:18:21.998Z,17.82
2023-05-10T16:22:13.832Z,17.69
2023-05-10T16:26:00.352Z,17.42
2023-05-10T16:29:44.182Z,17.21
2023-05-10T16:48:52.700Z,16.20
2023-05-10T16:52:43.935Z,15.88
2023-05-10T16:56:28.160Z,15.57
2023-05-10T17:00:20.482Z,15.38
2023-05-10T17:19:28.476Z,14.76
2023-05-10T17:23:20.766Z,14.68
2023-05-10T17:27:11.583Z,14.66
2023-05-10T17:31:02.705Z,14.66
2023-05-10T17:50:26.011Z,14.44
2023-05-10T17:54:18.880Z,14.34
2023-05-10T17:58:01.753Z,14.20
2023-05-10T18:01:45.843Z,14.09
2023-05-10T18:20:24.720Z,13.11
2023-05-10T18:24:17.007Z,12.93
2023-05-10T18:32:12.960Z,12.63
2023-05-10T18:36:02.158Z,12.47
2023-05-10T19:03:12.936Z,11.41
2023-05-10T19:06:57.612Z,11.24
2023-05-10T19:10:31.150Z,11.12
2023-05-10T19:22:16.197Z,10.75
2023-05-10T19:26:02.707Z,10.53
2023-05-10T19:29:56.321Z,10.42
2023-05-10T19:41:45.495Z,10.18
2023-05-10T19:45:38.482Z,10.02
2023-05-10T19:49:29.582Z,9.89
2023-05-10T20:05:07.667Z,9.49
2023-05-10T20:08:56.383Z,9.26
2023-05-10T20:12:49.626Z,9.07
2023-05-10T20:24:45.704Z,8.68
2023-05-10T20:28:37.959Z,8.60
2023-05-10T20:32:28.984Z,8.47
2023-05-10T20:48:20.035Z,8.09
2023-05-10T20:52:14.185Z,7.90
2023-05-10T21:07:55.182Z,7.65
2023-05-10T21:11:46.688Z,7.45
2023-05-10T21:27:19.045Z,6.94
2023-05-10T21:31:10.266Z,6.82
2023-05-10T21:35:02.096Z,6.68
2023-05-10T21:50:14.748Z,6.62
2023-05-10T21:53:59.931Z,6.53
2023-05-10T22:09:31.633Z,6.14
2023-05-10T22:13:22.420Z,6.01
2023-05-10T22:17:16.056Z,5.88
2023-05-10T22:29:14.318Z,5.74
2023-05-10T22:33:06.668Z,5.69
2023-05-10T22:49:19.840Z,5.58
2023-05-10T22:53:10.451Z,5.51
2023-05-10T22:57:00.569Z,5.43
2023-05-10T23:08:30.984Z,5.22
2023-05-10T23:12:23.100Z,5.03
2023-05-10T23:16:04.704Z,4.90
2023-05-10T23:23:54.014Z,4.80
2023-05-10T23:27:45.121Z,4.67
2023-05-10T23:43:18.616Z,4.57
2023-05-10T23:47:10.430Z,4.51
2023-05-10T23:51:03.052Z,4.42
